createdAt,value
2023-05-03T00:02:23.829Z,4.10
2023-05-03T00:04:53.658Z,3.70
2023-05-03T00:07:22.372Z,4.20
2023-05-03T00:09:50.201Z,3.50
2023-05-03T00:12:17.259Z,3.30
2023-05-03T00:14:45.854Z,3.60
2023-05-03T00:17:13.494Z,3.80
2023-05-03T00:19:40.806Z,3.60
2023-05-03T00:22:09.090Z,4.00
2023-05-03T00:24:36.204Z,3.80
2023-05-03T00:27:04.785Z,3.60
2023-05-03T00:29:31.756Z,3.50
2023-05-03T00:32:00.405Z,3.70
2023-05-03T00:34:27.407Z,3.70
2023-05-03T00:36:54.480Z,3.20
2023-05-03T00:39:21.471Z,2.90
2023-05-03T00:41:48.493Z,3.00
2023-05-03T00:44:15.624Z,3.50
2023-05-03T00:46:42.838Z,3.50
2023-05-03T00:49:10.075Z,3.70
2023-05-03T00:51:37.560Z,3.90
2023-05-03T00:54:05.010Z,3.50
2023-05-03T00:56:44.075Z,3.90
2023-05-03T00:59:19.031Z,3.40
2023-05-03T01:01:51.130Z,3.50
2023-05-03T01:04:19.861Z,3.20
2023-05-03T01:07:10.919Z,2.50
2023-05-03T01:10:02.983Z,3.10
2023-05-03T01:12:54.151Z,3.40
2023-05-03T01:15:30.602Z,3.30
2023-05-03T01:18:04.583Z,3.80
2023-05-03T01:20:35.408Z,3.60
2023-05-03T01:23:14.909Z,3.70
2023-05-03T01:25:42.369Z,3.30
2023-05-03T01:28:09.512Z,3.70
2023-05-03T01:30:38.002Z,3.30
2023-05-03T01:33:17.233Z,3.30
2023-05-03T01:36:16.527Z,2.80
2023-05-03T01:38:43.773Z,3.10
2023-05-03T01:41:12.575Z,3.00
2023-05-03T01:43:40.914Z,3.40
2023-05-03T01:46:08.640Z,3.40
2023-05-03T01:48:35.878Z,3.20
2023-05-03T01:51:03.626Z,3.20
2023-05-03T01:53:30.680Z,3.20
2023-05-03T01:55:57.840Z,3.50
2023-05-03T01:58:24.996Z,2.60
2023-05-03T02:00:53.286Z,2.50
2023-05-03T02:03:21.037Z,2.80
2023-05-03T02:05:48.882Z,2.80
2023-05-03T02:08:16.956Z,2.80
2023-05-03T02:10:44.628Z,3.00
2023-05-03T02:13:11.667Z,3.20
2023-05-03T02:15:38.616Z,3.00
2023-05-03T02:18:05.910Z,2.90
2023-05-03T02:20:36.738Z,3.10
2023-05-03T02:23:04.763Z,3.00
2023-05-03T02:25:32.273Z,2.90
2023-05-03T02:28:00.164Z,2.60
2023-05-03T02:30:27.346Z,2.80
2023-05-03T02:32:54.656Z,2.90
2023-05-03T02:35:21.751Z,2.70
2023-05-03T02:37:48.866Z,3.10
2023-05-03T02:40:16.466Z,3.00
2023-05-03T02:42:44.323Z,3.10
2023-05-03T02:45:14.143Z,3.00
2023-05-03T02:47:41.493Z,2.80
2023-05-03T02:50:09.135Z,2.40
2023-05-03T02:52:36.403Z,2.90
2023-05-03T02:55:03.654Z,3.00
2023-05-03T02:57:31.112Z,2.70
2023-05-03T02:59:59.078Z,2.70
2023-05-03T03:02:26.604Z,2.90
2023-05-03T03:04:54.093Z,2.70
2023-05-03T03:07:21.121Z,3.00
2023-05-03T03:09:48.909Z,3.10
2023-05-03T03:12:16.592Z,3.00
2023-05-03T03:14:46.073Z,2.60
2023-05-03T03:17:13.841Z,2.50
2023-05-03T03:19:41.372Z,2.40
2023-05-03T03:22:08.445Z,2.50
2023-05-03T03:24:36.713Z,2.70
2023-05-03T03:27:04.181Z,2.80
2023-05-03T03:29:33.279Z,2.70
2023-05-03T03:32:01.161Z,2.70
2023-05-03T03:34:28.500Z,2.60
2023-05-03T03:36:55.850Z,2.90
2023-05-03T03:39:22.999Z,3.00
2023-05-03T03:41:50.354Z,2.50
2023-05-03T03:44:17.406Z,2.10
2023-05-03T03:46:44.891Z,2.50
2023-05-03T03:49:13.139Z,2.80
2023-05-03T03:51:41.104Z,2.70
2023-05-03T03:54:08.255Z,2.40
2023-05-03T03:56:36.432Z,2.90
2023-05-03T03:59:03.603Z,3.20
2023-05-03T04:01:31.463Z,2.80
2023-05-03T04:03:58.719Z,2.80
2023-05-03T04:06:27.313Z,2.50
2023-05-03T04:08:55.385Z,2.50
2023-05-03T04:11:22.506Z,2.10
2023-05-03T04:13:53.654Z,2.40
2023-05-03T04:16:21.763Z,2.60
2023-05-03T04:18:49.481Z,2.20
2023-05-03T04:21:16.737Z,2.80
2023-05-03T04:23:44.018Z,3.00
2023-05-03T04:26:20.248Z,2.70
2023-05-03T04:28:58.385Z,2.50
2023-05-03T04:31:27.003Z,2.40
2023-05-03T04:33:54.957Z,2.70
2023-05-03T04:36:26.098Z,2.10
2023-05-03T04:38:54.836Z,2.10
2023-05-03T04:41:25.583Z,2.60
2023-05-03T04:43:53.850Z,2.20
2023-05-03T04:46:21.418Z,2.50
2023-05-03T04:48:49.912Z,2.30
2023-05-03T04:51:17.964Z,2.60
2023-05-03T04:53:46.162Z,2.60
2023-05-03T04:56:16.357Z,2.80
2023-05-03T04:58:44.726Z,2.60
2023-05-03T05:01:12.357Z,2.40
2023-05-03T05:03:39.752Z,2.30
2023-05-03T05:06:12.710Z,2.00
2023-05-03T05:08:40.877Z,2.20
2023-05-03T05:11:08.522Z,2.50
2023-05-03T05:13:35.964Z,2.10
2023-05-03T05:16:02.961Z,2.20
2023-05-03T05:18:30.371Z,2.70
2023-05-03T05:20:58.341Z,2.80
2023-05-03T05:23:26.269Z,2.60
2023-05-03T05:25:54.371Z,2.40
2023-05-03T05:28:21.909Z,2.40
2023-05-03T05:30:49.317Z,1.70
2023-05-03T05:33:19.110Z,2.20
2023-05-03T05:35:50.660Z,2.00
2023-05-03T05:38:20.270Z,2.40
2023-05-03T05:40:48.051Z,2.10
2023-05-03T05:43:15.322Z,2.50
2023-05-03T05:45:44.130Z,2.60
2023-05-03T05:48:11.280Z,2.30
2023-05-03T05:50:38.550Z,2.40
2023-05-03T05:53:09.910Z,2.50
2023-05-03T05:55:39.565Z,1.90
2023-05-03T05:58:06.871Z,1.50
2023-05-03T06:00:39.324Z,1.80
2023-05-03T06:03:06.658Z,2.10
2023-05-03T06:05:34.656Z,2.10
2023-05-03T06:08:01.899Z,2.40
2023-05-03T06:10:28.965Z,2.60
2023-05-03T06:12:57.438Z,2.50
2023-05-03T06:15:26.426Z,2.50
2023-05-03T06:17:54.159Z,2.50
2023-05-03T06:20:21.329Z,2.70
2023-05-03T06:22:49.156Z,2.30
2023-05-03T06:25:17.990Z,2.10
2023-05-03T06:27:48.582Z,2.60
2023-05-03T06:30:17.234Z,2.50
2023-05-03T06:32:47.732Z,2.50
2023-05-03T06:35:15.908Z,2.50
2023-05-03T06:37:43.874Z,2.40
2023-05-03T06:40:11.590Z,2.50
2023-05-03T06:42:38.654Z,2.80
2023-05-03T06:45:09.646Z,2.90
2023-05-03T06:47:40.311Z,2.70
2023-05-03T06:50:08.773Z,2.00
2023-05-03T06:52:36.193Z,2.50
2023-05-03T06:55:04.912Z,2.90
2023-05-03T06:57:32.537Z,2.40
2023-05-03T07:00:01.350Z,2.60
2023-05-03T07:02:29.268Z,2.80
2023-05-03T07:04:56.349Z,2.60
2023-05-03T07:07:23.528Z,2.90
2023-05-03T07:09:50.700Z,2.50
2023-05-03T07:12:18.001Z,2.20
2023-05-03T07:14:45.339Z,2.10
2023-05-03T07:17:12.595Z,2.40
2023-05-03T07:19:39.879Z,2.40
2023-05-03T07:22:07.434Z,2.40
2023-05-03T07:24:34.566Z,2.70
2023-05-03T07:27:02.453Z,2.40
2023-05-03T07:29:29.519Z,2.60
2023-05-03T07:31:56.725Z,2.30
2023-05-03T07:34:23.998Z,1.90
2023-05-03T07:36:52.153Z,2.00
2023-05-03T07:39:19.857Z,2.10
2023-05-03T07:41:47.378Z,2.30
2023-05-03T07:44:14.700Z,1.90
2023-05-03T07:46:41.716Z,2.70
2023-05-03T07:49:08.811Z,2.20
2023-05-03T07:51:37.528Z,2.20
2023-05-03T07:54:04.742Z,2.20
2023-05-03T07:56:32.378Z,1.90
2023-05-03T07:59:08.470Z,2.10
2023-05-03T08:01:36.049Z,2.00
2023-05-03T08:04:03.671Z,2.30
2023-05-03T08:06:32.025Z,1.70
2023-05-03T08:08:59.380Z,1.90
2023-05-03T08:11:29.095Z,2.10
2023-05-03T08:13:57.019Z,2.00
2023-05-03T08:16:24.603Z,1.80
2023-05-03T08:18:51.952Z,2.40
2023-05-03T08:21:19.591Z,2.30
2023-05-03T08:23:46.644Z,1.80
2023-05-03T08:26:14.924Z,2.20
2023-05-03T08:28:43.029Z,2.20
2023-05-03T08:31:10.296Z,2.30
2023-05-03T08:33:37.711Z,3.00
2023-05-03T08:36:05.259Z,3.10
2023-05-03T08:38:32.845Z,2.80
2023-05-03T08:41:09.078Z,2.60
2023-05-03T08:43:42.173Z,2.60
2023-05-03T08:46:12.708Z,3.80
2023-05-03T08:48:39.727Z,3.60
2023-05-03T08:51:10.477Z,3.40
2023-05-03T08:53:38.056Z,3.10
2023-05-03T08:56:14.282Z,3.30
2023-05-03T08:58:41.473Z,3.10
2023-05-03T09:01:10.124Z,2.60
2023-05-03T09:03:38.358Z,2.20
2023-05-03T09:06:20.829Z,3.20
2023-05-03T09:08:47.847Z,2.80
2023-05-03T09:11:26.393Z,3.10
2023-05-03T09:13:54.453Z,3.50
2023-05-03T09:16:27.656Z,3.10
2023-05-03T09:19:01.843Z,3.40
2023-05-03T09:21:31.609Z,3.40
2023-05-03T09:23:59.888Z,2.50
2023-05-03T09:26:37.319Z,1.80
2023-05-03T09:29:05.204Z,1.80
2023-05-03T09:31:34.151Z,1.70
2023-05-03T09:34:02.179Z,1.60
2023-05-03T09:36:44.940Z,2.00
2023-05-03T09:39:20.012Z,2.00
2023-05-03T09:41:47.562Z,1.80
2023-05-03T09:44:14.762Z,1.80
2023-05-03T09:47:02.536Z,1.60
2023-05-03T09:49:31.483Z,1.80
2023-05-03T09:51:59.846Z,1.60
2023-05-03T09:54:27.057Z,1.40
2023-05-03T09:56:58.193Z,1.40
2023-05-03T09:59:25.537Z,1.40
2023-05-03T10:01:57.852Z,2.00
2023-05-03T10:04:27.252Z,2.80
2023-05-03T10:07:01.045Z,2.40
2023-05-03T10:09:43.732Z,2.50
2023-05-03T10:12:17.746Z,3.00
2023-05-03T10:14:48.512Z,2.60
2023-05-03T10:17:29.251Z,2.30
2023-05-03T10:20:27.530Z,2.90
2023-05-03T10:23:06.709Z,3.90
2023-05-03T10:25:36.720Z,3.70
2023-05-03T10:28:04.466Z,4.20
2023-05-03T10:30:34.786Z,4.80
2023-05-03T10:33:14.494Z,4.70
2023-05-03T10:35:52.648Z,4.10
2023-05-03T10:38:25.331Z,4.60
2023-05-03T10:40:53.502Z,4.10
2023-05-03T10:43:29.692Z,4.20
2023-05-03T10:46:01.254Z,4.10
2023-05-03T10:48:30.496Z,4.40
2023-05-03T10:50:58.611Z,4.20
2023-05-03T10:53:32.678Z,2.90
2023-05-03T10:56:06.030Z,2.90
2023-05-03T10:58:37.652Z,3.00
2023-05-03T11:01:06.744Z,2.90
2023-05-03T11:03:38.527Z,3.30
2023-05-03T11:06:06.284Z,3.30
2023-05-03T11:08:38.017Z,3.80
2023-05-03T11:11:10.188Z,3.30
2023-05-03T11:13:37.458Z,3.20
2023-05-03T11:16:06.246Z,2.80
2023-05-03T11:18:33.791Z,2.30
2023-05-03T11:21:00.944Z,2.40
2023-05-03T11:23:29.129Z,2.90
2023-05-03T11:25:58.249Z,3.00
2023-05-03T11:28:26.393Z,2.70
2023-05-03T11:30:53.636Z,3.20
2023-05-03T11:33:20.780Z,3.00
2023-05-03T11:35:47.867Z,3.10
2023-05-03T11:38:15.312Z,2.70
2023-05-03T11:40:42.395Z,2.40
2023-05-03T11:43:09.629Z,1.80
2023-05-03T11:45:44.444Z,2.40
2023-05-03T11:48:19.322Z,2.50
2023-05-03T11:50:53.564Z,2.50
2023-05-03T11:53:21.587Z,2.70
2023-05-03T11:55:50.744Z,2.50
2023-05-03T11:58:18.701Z,2.60
2023-05-03T12:00:54.908Z,2.90
2023-05-03T12:03:31.888Z,2.50
2023-05-03T12:06:01.775Z,2.30
2023-05-03T12:08:35.387Z,1.50
2023-05-03T12:11:07.550Z,2.10
2023-05-03T12:13:39.744Z,2.40
2023-05-03T12:16:14.902Z,2.60
2023-05-03T12:18:47.445Z,2.70
2023-05-03T12:23:50.007Z,2.80
2023-05-03T12:26:22.160Z,2.20
2023-05-03T12:28:49.992Z,2.00
2023-05-03T12:31:22.846Z,1.90
2023-05-03T12:34:11.873Z,2.40
2023-05-03T12:36:41.139Z,2.50
2023-05-03T12:39:16.340Z,2.40
2023-05-03T12:42:06.079Z,2.50
2023-05-03T12:44:33.042Z,2.50
2023-05-03T12:47:03.387Z,2.70
2023-05-03T12:49:32.451Z,2.40
2023-05-03T12:52:34.669Z,2.20
2023-05-03T12:54:49.243Z,2.20
2023-05-03T12:57:23.315Z,2.30
2023-05-03T13:00:01.593Z,2.10
2023-05-03T13:05:01.008Z,2.50
2023-05-03T13:07:31.827Z,2.40
2023-05-03T13:12:31.107Z,2.20
2023-05-03T13:14:58.398Z,2.40
2023-05-03T13:17:26.683Z,1.90
2023-05-03T13:19:54.496Z,2.00
2023-05-03T13:22:23.532Z,2.10
2023-05-03T13:24:51.295Z,2.50
2023-05-03T13:27:18.673Z,2.20
2023-05-03T13:29:49.115Z,2.40
2023-05-03T13:32:17.276Z,2.30
2023-05-03T13:34:44.630Z,1.90
2023-05-03T13:37:11.970Z,1.90
2023-05-03T13:39:39.265Z,2.70
2023-05-03T13:42:06.624Z,2.50
2023-05-03T13:44:34.071Z,2.10
2023-05-03T13:47:01.885Z,2.20
2023-05-03T13:49:29.509Z,2.30
2023-05-03T13:51:56.992Z,2.30
2023-05-03T13:54:24.521Z,2.20
2023-05-03T13:56:52.460Z,1.90
2023-05-03T13:59:20.053Z,2.00
2023-05-03T14:01:48.449Z,2.30
2023-05-03T14:04:16.169Z,2.50
2023-05-03T14:06:43.924Z,2.10
2023-05-03T14:09:11.199Z,2.40
2023-05-03T14:11:40.611Z,2.10
2023-05-03T14:14:07.638Z,2.10
2023-05-03T14:19:05.133Z,1.90
2023-05-03T14:21:32.171Z,1.80
2023-05-03T14:24:01.379Z,1.80
2023-05-03T14:26:29.692Z,2.10
2023-05-03T14:28:57.262Z,2.60
2023-05-03T14:31:24.342Z,2.30
2023-05-03T14:33:51.460Z,2.00
2023-05-03T14:36:18.499Z,2.20
2023-05-03T14:38:45.627Z,2.20
2023-05-03T14:41:12.662Z,1.50
2023-05-03T14:43:39.851Z,1.90
2023-05-03T14:46:08.536Z,1.50
2023-05-03T14:48:35.943Z,1.90
2023-05-03T14:51:03.888Z,2.30
2023-05-03T14:53:31.220Z,1.90
2023-05-03T14:55:58.289Z,2.00
2023-05-03T14:58:25.338Z,2.30
2023-05-03T15:00:52.338Z,1.80
2023-05-03T15:03:19.608Z,2.00
2023-05-03T15:05:48.870Z,2.40
2023-05-03T15:08:19.493Z,1.80
2023-05-03T15:10:48.034Z,2.00
2023-05-03T15:13:16.895Z,2.20
2023-05-03T15:15:44.435Z,2.10
2023-05-03T15:18:11.730Z,2.10
2023-05-03T15:20:39.272Z,2.50
2023-05-03T15:23:06.569Z,1.80
2023-05-03T15:25:33.789Z,1.90
2023-05-03T15:28:03.790Z,1.60
2023-05-03T15:30:32.338Z,2.20
2023-05-03T15:32:59.577Z,1.80
2023-05-03T15:35:29.404Z,2.20
2023-05-03T15:37:56.760Z,1.70
2023-05-03T15:40:26.695Z,2.20
2023-05-03T15:42:54.346Z,2.10
2023-05-03T15:45:23.535Z,1.70
2023-05-03T15:47:50.856Z,2.00
2023-05-03T15:50:17.930Z,1.60
2023-05-03T15:52:46.980Z,1.50
2023-05-03T15:55:14.353Z,1.70
2023-05-03T15:57:41.474Z,1.90
2023-05-03T16:00:09.608Z,1.70
2023-05-03T16:02:37.516Z,2.10
2023-05-03T16:05:04.880Z,2.40
2023-05-03T16:07:35.081Z,2.70
2023-05-03T16:10:02.348Z,1.30
2023-05-03T16:12:29.630Z,1.30
2023-05-03T16:14:56.805Z,2.00
2023-05-03T16:17:23.918Z,1.80
2023-05-03T16:19:51.214Z,2.00
2023-05-03T16:22:18.260Z,1.80
2023-05-03T16:24:47.046Z,2.20
2023-05-03T16:27:14.392Z,1.90
2023-05-03T16:29:41.468Z,2.20
2023-05-03T16:32:10.066Z,2.40
2023-05-03T16:34:37.905Z,2.20
2023-05-03T16:37:05.467Z,2.00
2023-05-03T16:39:32.918Z,2.30
2023-05-03T16:41:59.973Z,2.20
2023-05-03T16:44:27.118Z,2.70
2023-05-03T16:46:54.266Z,3.00
2023-05-03T16:49:22.341Z,2.80
2023-05-03T16:51:49.316Z,2.30
2023-05-03T16:54:17.120Z,2.10
2023-05-03T16:56:44.564Z,2.20
2023-05-03T16:59:11.913Z,2.20
2023-05-03T17:01:39.396Z,2.10
2023-05-03T17:04:07.083Z,2.40
2023-05-03T17:06:34.128Z,2.00
2023-05-03T17:09:01.686Z,2.60
2023-05-03T17:11:29.381Z,2.20
2023-05-03T17:13:56.706Z,2.10
2023-05-03T17:16:23.832Z,1.90
2023-05-03T17:18:50.994Z,2.20
2023-05-03T17:21:19.345Z,2.00
2023-05-03T17:23:46.883Z,2.10
2023-05-03T17:26:14.583Z,2.10
2023-05-03T17:28:43.298Z,2.20
2023-05-03T17:31:10.470Z,1.90
2023-05-03T17:33:37.688Z,1.30
2023-05-03T17:36:05.149Z,2.10
2023-05-03T17:38:33.860Z,2.00
2023-05-03T17:41:08.251Z,2.30
2023-05-03T17:43:39.002Z,1.80
2023-05-03T17:46:11.484Z,2.30
2023-05-03T17:48:40.054Z,1.80
2023-05-03T17:51:08.723Z,1.30
2023-05-03T17:53:35.868Z,1.80
2023-05-03T17:56:02.926Z,1.80
2023-05-03T17:58:29.976Z,2.00
2023-05-03T18:00:57.729Z,2.00
2023-05-03T18:03:26.067Z,1.70
2023-05-03T18:05:53.563Z,2.20
2023-05-03T18:08:20.733Z,1.70
2023-05-03T18:10:47.948Z,2.00
2023-05-03T18:13:15.179Z,1.60
2023-05-03T18:15:42.415Z,1.50
2023-05-03T18:18:09.730Z,1.90
2023-05-03T18:20:36.772Z,1.90
2023-05-03T18:23:04.129Z,2.00
2023-05-03T18:25:31.778Z,1.50
2023-05-03T18:27:58.902Z,1.40
2023-05-03T18:30:28.416Z,1.60
2023-05-03T18:32:56.133Z,1.50
2023-05-03T18:35:23.358Z,1.50
2023-05-03T18:37:50.371Z,1.70
2023-05-03T18:40:17.552Z,1.50
2023-05-03T18:42:44.555Z,1.70
2023-05-03T18:45:12.232Z,1.50
2023-05-03T18:47:39.363Z,1.10
2023-05-03T18:50:07.760Z,1.30
2023-05-03T18:52:34.971Z,1.60
2023-05-03T18:55:02.118Z,1.40
2023-05-03T18:57:29.162Z,1.70
2023-05-03T19:00:01.099Z,1.60
2023-05-03T19:02:31.493Z,1.40
2023-05-03T19:05:00.110Z,1.90
2023-05-03T19:07:27.826Z,1.60
2023-05-03T19:09:56.276Z,1.50
2023-05-03T19:12:24.032Z,1.30
2023-05-03T19:14:51.083Z,1.80
2023-05-03T19:17:18.135Z,2.30
2023-05-03T19:19:45.493Z,1.80
2023-05-03T19:22:12.623Z,1.50
2023-05-03T19:24:40.180Z,1.90
2023-05-03T19:27:07.452Z,1.70
2023-05-03T19:29:34.794Z,1.50
2023-05-03T19:32:02.029Z,1.30
2023-05-03T19:34:29.069Z,1.20
2023-05-03T19:36:56.246Z,1.20
2023-05-03T19:39:23.318Z,1.70
2023-05-03T19:41:53.081Z,1.50
2023-05-03T19:44:20.600Z,1.70
2023-05-03T19:46:47.901Z,2.00
2023-05-03T19:49:15.058Z,2.00
2023-05-03T19:51:42.108Z,1.60
2023-05-03T19:54:09.350Z,1.30
2023-05-03T19:56:36.633Z,1.30
2023-05-03T19:59:04.026Z,1.70
2023-05-03T20:01:31.430Z,1.60
2023-05-03T20:03:58.557Z,1.50
2023-05-03T20:06:25.772Z,1.80
2023-05-03T20:08:52.933Z,1.70
2023-05-03T20:11:20.035Z,1.80
2023-05-03T20:13:47.371Z,1.90
2023-05-03T20:16:14.476Z,1.60
2023-05-03T20:18:42.295Z,1.50
2023-05-03T20:21:09.706Z,1.30
2023-05-03T20:23:36.722Z,1.40
2023-05-03T20:26:03.746Z,1.50
2023-05-03T20:28:32.745Z,1.90
2023-05-03T20:30:59.989Z,1.50
2023-05-03T20:33:27.039Z,1.50
2023-05-03T20:35:54.124Z,1.60
2023-05-03T20:38:21.131Z,1.60
2023-05-03T20:40:48.176Z,1.40
2023-05-03T20:43:15.166Z,1.10
2023-05-03T20:45:42.310Z,1.40
2023-05-03T20:48:09.325Z,1.30
2023-05-03T20:50:36.667Z,1.60
2023-05-03T20:53:04.054Z,1.60
2023-05-03T20:55:31.292Z,1.70
2023-05-03T20:57:58.417Z,1.90
2023-05-03T21:00:25.686Z,1.50
2023-05-03T21:02:54.748Z,1.40
2023-05-03T21:05:22.250Z,1.50
2023-05-03T21:07:49.685Z,1.40
2023-05-03T21:10:16.620Z,1.50
2023-05-03T21:12:43.609Z,1.30
2023-05-03T21:15:11.234Z,1.30
2023-05-03T21:17:38.416Z,1.30
2023-05-03T21:20:08.441Z,1.40
2023-05-03T21:22:35.554Z,1.20
2023-05-03T21:25:04.444Z,1.20
2023-05-03T21:27:32.313Z,1.90
2023-05-03T21:29:59.454Z,1.40
2023-05-03T21:32:26.424Z,1.40
2023-05-03T21:34:54.108Z,1.60
2023-05-03T21:37:22.068Z,1.80
2023-05-03T21:40:00.557Z,1.60
2023-05-03T21:42:28.922Z,1.30
2023-05-03T21:44:55.968Z,1.60
2023-05-03T21:47:23.051Z,1.10
2023-05-03T21:49:51.906Z,1.70
2023-05-03T21:52:19.363Z,1.70
2023-05-03T21:54:47.372Z,1.70
2023-05-03T21:57:14.495Z,1.50
2023-05-03T21:59:42.265Z,1.70
2023-05-03T22:02:09.625Z,2.30
2023-05-03T22:04:36.858Z,1.20
2023-05-03T22:07:04.209Z,1.20
2023-05-03T22:09:31.262Z,1.40
2023-05-03T22:12:00.568Z,1.60
2023-05-03T22:14:29.147Z,1.90
2023-05-03T22:16:56.298Z,1.60
2023-05-03T22:19:23.337Z,1.70
2023-05-03T22:21:51.208Z,1.50
2023-05-03T22:24:18.689Z,1.40
2023-05-03T22:26:45.943Z,1.10
2023-05-03T22:29:12.953Z,1.00
2023-05-03T22:31:40.420Z,1.30
2023-05-03T22:34:07.557Z,1.90
2023-05-03T22:36:34.620Z,1.80
2023-05-03T22:39:05.606Z,1.60
2023-05-03T22:41:33.318Z,1.30
2023-05-03T22:44:00.513Z,1.70
2023-05-03T22:46:27.770Z,1.40
2023-05-03T22:48:54.877Z,1.20
2023-05-03T22:51:21.760Z,1.20
2023-05-03T22:53:48.869Z,1.30
2023-05-03T22:56:15.913Z,1.40
2023-05-03T22:58:42.972Z,1.50
2023-05-03T23:01:11.793Z,1.10
2023-05-03T23:03:39.223Z,1.70
2023-05-03T23:06:06.671Z,1.80
2023-05-03T23:08:33.808Z,1.60
2023-05-03T23:11:00.887Z,1.30
2023-05-03T23:13:28.017Z,1.30
2023-05-03T23:15:55.386Z,1.10
2023-05-03T23:18:22.520Z,1.20
2023-05-03T23:20:49.803Z,1.30
2023-05-03T23:23:16.911Z,1.70
2023-05-03T23:28:12.737Z,1.60
2023-05-03T23:30:44.450Z,1.80
2023-05-03T23:33:12.519Z,2.20
2023-05-03T23:35:41.238Z,1.80
2023-05-03T23:38:08.187Z,1.60
2023-05-03T23:40:35.235Z,2.10
2023-05-03T23:43:02.184Z,2.30
2023-05-03T23:45:29.230Z,2.50
2023-05-03T23:47:56.238Z,2.40
2023-05-03T23:50:23.454Z,2.30
2023-05-03T23:52:50.472Z,2.30
2023-05-03T23:55:17.720Z,2.50
2023-05-03T23:57:45.089Z,2.70
